ダッカ の空港の天気 - METARとTAF

シャージャラル国際空港(ダッカ) ( VGHS / DAC ) - バングラデシュ ダッカ
飛行場実況気象(Metar)
観測時間10/01 22:00 BDT (10/01 16:00 UTC)
風向・風速静穏 0m/s
視程3500m
天気現象煙霧
全天の4割程度の雲 雲底高度 370m
全天の8割程度の雲 雲底高度 3050m
気温29℃
湿度74%
気圧1005hPa
METARVGHS 011600Z 00000KT 3500 HZ SCT012 BKN100 29/24 Q1005 NOSIG
過去の天気等 Google飛行場航空写真 Wunderground天気予報

過去48時間のMETAR

飛行場予報(TAF)
発表時間: 10/01 17:00 BDT (10/01 11:00 UTC)
予報対象時間: 1日18時 BDT ~ 3日0時 BDT
風向・風速南東 4m/s
視程4000m
天気現象煙霧
全天の4割程度の雲 雲底高度 460m
全天の8割程度の雲 雲底高度 3050m
2日0時 BDT ~ 2日2時 BDT に徐々に
風向・風速東南東 3m/s
視程3500m
天気現象煙霧
全天の4割程度の雲 雲底高度 370m
全天の8割程度の雲 雲底高度 3050m
2日9時 BDT ~ 3日22時 BDT に一時的に
風向・風速南 13m/s
視程2000m
TAF VGHS 011100Z 0112/0218 14008KT 4000 HZ SCT015 BKN100
BECMG 0118/0120 12006KT 3500 HZ SCT012 BKN100
TEMPO 0203/0316 18025KT 2000 RA/TSRA BKN008 FEW025CB OVC090